Time;durP1;ratioP1;P1;durP2;ratioP2;P2;SDS_P1;SDS_P2;PMS_P1;PMS_P2;Temp;Humidity;BMP_temperature;BMP_pressure;BME280_temperature;BME280_humidity;BME280_pressure;Samples;Min_cycle;Max_cycle;Signal;HPM_P1;HPM_P2
2023/12/31 00:01:35;;;;;;;3.33;1.40;;;;;;;7.98;100.00;100343.88;4977159;28;20452;-86
2023/12/31 00:04:13;;;;;;;2.55;1.40;;;;;;;7.98;100.00;100328.38;4976513;28;20431;-86
2023/12/31 00:06:38;;;;;;;2.70;1.70;;;;;;;8.03;100.00;100332.63;4977079;28;20029;-86
2023/12/31 00:09:03;;;;;;;2.27;1.50;;;;;;;8.00;100.00;100331.78;4977412;28;20054;-86
2023/12/31 00:11:28;;;;;;;3.13;1.50;;;;;;;8.23;100.00;100315.09;4976644;28;20031;-86
2023/12/31 00:13:54;;;;;;;1.63;1.30;;;;;;;7.98;100.00;100303.38;4976860;28;20031;-86
2023/12/31 00:16:20;;;;;;;2.93;1.67;;;;;;;8.17;100.00;100297.94;4976790;28;20023;-86
2023/12/31 00:18:45;;;;;;;1.47;1.37;;;;;;;8.04;100.00;100305.91;4958875;28;20551;-86
2023/12/31 00:21:10;;;;;;;5.00;1.37;;;;;;;8.16;100.00;100306.59;4976908;28;20062;-86
2023/12/31 00:23:36;;;;;;;5.60;1.80;;;;;;;8.39;100.00;100303.69;4976309;28;20034;-86
2023/12/31 00:26:01;;;;;;;3.93;1.53;;;;;;;8.10;100.00;100276.53;4976068;28;20110;-85
2023/12/31 00:28:26;;;;;;;2.30;1.53;;;;;;;8.10;100.00;100281.69;4976574;28;20456;-85
2023/12/31 00:30:51;;;;;;;3.00;1.60;;;;;;;8.09;100.00;100276.53;4976242;28;20130;-85
2023/12/31 00:33:17;;;;;;;2.40;1.40;;;;;;;8.09;100.00;100285.16;4975498;28;20033;-86
2023/12/31 00:35:42;;;;;;;3.27;1.70;;;;;;;8.18;100.00;100276.41;4976142;28;20027;-86
2023/12/31 00:38:07;;;;;;;3.90;1.53;;;;;;;8.24;100.00;100262.53;4975369;28;20045;-86
2023/12/31 00:40:32;;;;;;;1.40;1.30;;;;;;;8.17;100.00;100260.06;4975477;28;20027;-85
2023/12/31 00:42:58;;;;;;;1.80;1.27;;;;;;;8.28;100.00;100256.44;4976229;28;20399;-87
2023/12/31 00:45:23;;;;;;;2.60;1.58;;;;;;;8.23;100.00;100241.00;4976598;28;20114;-86
2023/12/31 00:47:48;;;;;;;2.50;1.47;;;;;;;8.18;100.00;100233.31;4975588;28;20043;-86
2023/12/31 00:50:13;;;;;;;2.47;1.50;;;;;;;8.15;100.00;100224.78;4976206;28;20472;-86
2023/12/31 00:52:39;;;;;;;2.07;1.60;;;;;;;8.16;100.00;100229.06;4974688;28;20043;-85
2023/12/31 00:55:05;;;;;;;1.50;1.40;;;;;;;8.21;100.00;100226.41;4976123;28;20058;-83
2023/12/31 00:57:30;;;;;;;3.07;1.63;;;;;;;8.19;100.00;100219.53;4976637;28;20434;-85
2023/12/31 00:59:55;;;;;;;1.90;1.53;;;;;;;8.27;100.00;100226.28;4975621;28;20031;-85
2023/12/31 01:02:21;;;;;;;3.90;1.60;;;;;;;8.23;100.00;100227.22;4991001;23;20058;-85
2023/12/31 01:04:49;;;;;;;4.30;1.60;;;;;;;8.32;100.00;100227.94;4975799;28;20041;-85
2023/12/31 01:07:14;;;;;;;1.60;1.50;;;;;;;8.19;100.00;100221.25;4975517;28;20037;-85
2023/12/31 01:09:52;;;;;;;1.93;1.57;;;;;;;8.14;100.00;100210.13;4976272;28;20023;-85
2023/12/31 01:12:17;;;;;;;2.42;1.48;;;;;;;8.15;100.00;100209.25;4976186;28;20034;-85
2023/12/31 01:14:42;;;;;;;1.30;1.20;;;;;;;8.14;100.00;100213.56;4974517;28;20054;-85
2023/12/31 01:17:10;;;;;;;3.23;1.70;;;;;;;8.11;100.00;100199.84;4976451;28;20025;-85
2023/12/31 01:19:35;;;;;;;1.50;1.40;;;;;;;8.03;100.00;100189.63;4976073;28;20034;-85
2023/12/31 01:22:01;;;;;;;1.60;1.50;;;;;;;8.17;100.00;100189.38;4974848;28;20031;-85
2023/12/31 01:24:27;;;;;;;3.80;1.80;;;;;;;8.19;100.00;100200.56;4975924;28;20077;-85
2023/12/31 01:26:52;;;;;;;1.77;1.60;;;;;;;8.13;100.00;100186.00;4975054;28;20395;-84
2023/12/31 01:29:17;;;;;;;1.97;1.53;;;;;;;8.13;100.00;100177.41;4975087;28;20019;-85
2023/12/31 01:31:48;;;;;;;2.73;1.60;;;;;;;8.10;100.00;100177.44;4975810;28;20030;-84
2023/12/31 01:34:16;;;;;;;2.40;1.50;;;;;;;8.12;100.00;100168.78;4975390;28;20035;-84
2023/12/31 01:36:41;;;;;;;2.28;1.60;;;;;;;8.12;100.00;100171.38;4974556;28;20419;-85
2023/12/31 01:39:09;;;;;;;2.33;1.70;;;;;;;8.11;99.95;100158.47;4975861;28;20113;-84
2023/12/31 01:41:34;;;;;;;2.30;1.60;;;;;;;8.07;100.00;100167.16;4975619;28;20114;-84
2023/12/31 01:44:09;;;;;;;1.67;1.50;;;;;;;8.14;100.00;100168.78;4974892;28;20456;-85
2023/12/31 01:46:35;;;;;;;1.50;1.38;;;;;;;8.09;100.00;100148.19;4975173;28;20031;-84
2023/12/31 01:49:01;;;;;;;2.23;1.57;;;;;;;8.23;98.77;100149.66;4980875;23;20042;-83
2023/12/31 01:51:29;;;;;;;1.50;1.15;;;;;;;8.08;100.00;100143.88;4974821;28;20511;-85
2023/12/31 01:54:02;;;;;;;2.50;1.70;;;;;;;8.01;99.50;100131.94;4974626;28;20034;-86
2023/12/31 01:56:28;;;;;;;1.83;1.60;;;;;;;8.13;99.82;100141.22;4974757;28;20118;-85
2023/12/31 01:58:54;;;;;;;2.78;1.70;;;;;;;8.19;99.50;100130.78;4975072;28;20047;-85
2023/12/31 02:01:22;;;;;;;1.95;1.50;;;;;;;8.09;99.56;100117.16;4975077;28;20026;-85
2023/12/31 02:03:50;;;;;;;3.15;1.73;;;;;;;8.04;99.06;100116.38;4974060;28;20038;-85
2023/12/31 02:06:18;;;;;;;2.00;1.77;;;;;;;8.21;98.33;100110.09;4975083;28;20423;-85
2023/12/31 02:08:43;;;;;;;2.92;1.80;;;;;;;8.24;98.49;100117.75;4975046;28;20029;-84
2023/12/31 02:11:09;;;;;;;3.43;1.80;;;;;;;8.17;97.69;100111.84;4974129;28;20113;-85
2023/12/31 02:13:34;;;;;;;2.73;1.90;;;;;;;8.18;97.32;100101.50;4974460;28;20135;-84
2023/12/31 02:15:59;;;;;;;3.07;1.77;;;;;;;8.10;98.22;100100.78;4974819;28;20037;-84
2023/12/31 02:18:24;;;;;;;2.87;1.80;;;;;;;8.13;97.52;100098.13;4974010;28;20035;-85
2023/12/31 02:20:50;;;;;;;2.27;1.80;;;;;;;8.02;98.93;100089.69;4974788;28;20117;-85
2023/12/31 02:23:16;;;;;;;3.33;1.70;;;;;;;8.15;97.51;100092.94;4975057;28;20046;-85
2023/12/31 02:25:46;;;;;;;2.23;1.90;;;;;;;8.01;98.43;100067.31;4974164;28;20403;-85
2023/12/31 02:28:12;;;;;;;2.45;1.80;;;;;;;8.03;98.42;100075.91;4975187;28;20027;-85
2023/12/31 02:30:37;;;;;;;1.87;1.63;;;;;;;7.95;98.13;100070.88;4974708;28;20023;-84
2023/12/31 02:33:02;;;;;;;2.63;1.60;;;;;;;8.02;99.05;100066.44;4973797;28;20019;-85
2023/12/31 02:35:28;;;;;;;3.27;1.87;;;;;;;8.03;98.78;100057.81;4975251;28;20066;-85
2023/12/31 02:37:53;;;;;;;2.25;1.70;;;;;;;8.07;98.44;100037.94;4974924;28;20050;-85
2023/12/31 02:40:18;;;;;;;1.63;1.53;;;;;;;7.98;99.11;100044.13;4974401;28;20023;-85
2023/12/31 02:42:44;;;;;;;2.73;1.80;;;;;;;7.99;99.25;100035.50;4974978;28;20053;-86
2023/12/31 02:45:09;;;;;;;2.50;1.70;;;;;;;8.02;98.39;100017.34;4974165;28;20031;-85
2023/12/31 02:47:35;;;;;;;2.00;1.80;;;;;;;8.00;98.86;100014.81;4974180;28;20101;-85
2023/12/31 02:50:00;;;;;;;2.10;1.90;;;;;;;8.08;98.14;100017.25;4975169;28;20571;-86
2023/12/31 02:52:25;;;;;;;4.17;1.90;;;;;;;8.09;97.56;100005.16;4974179;28;20026;-85
2023/12/31 02:54:53;;;;;;;2.53;1.70;;;;;;;8.08;97.84;100006.91;4974473;28;20576;-85
2023/12/31 02:57:22;;;;;;;1.88;1.70;;;;;;;8.07;98.00;99999.16;4974111;28;20150;-85
2023/12/31 02:59:50;;;;;;;2.00;1.80;;;;;;;8.03;97.96;99998.38;4973519;28;20038;-86
2023/12/31 03:02:15;;;;;;;2.17;1.75;;;;;;;8.04;97.85;100000.09;4978003;28;20447;-85
2023/12/31 03:04:40;;;;;;;4.43;1.80;;;;;;;8.06;98.14;99982.81;4978142;28;20026;-85
2023/12/31 03:07:06;;;;;;;2.22;1.80;;;;;;;8.01;98.50;99979.47;4977221;28;20026;-85
2023/12/31 03:09:31;;;;;;;2.40;1.57;;;;;;;8.16;97.87;99984.34;4978300;28;20023;-86
2023/12/31 03:11:56;;;;;;;1.80;1.60;;;;;;;7.98;98.73;99979.53;4978385;28;20030;-85
2023/12/31 03:14:21;;;;;;;2.50;1.73;;;;;;;8.00;98.19;99976.03;4977485;28;20228;-85
2023/12/31 03:16:47;;;;;;;2.00;1.80;;;;;;;8.00;98.33;99976.03;4977824;28;20110;-86
2023/12/31 03:19:13;;;;;;;2.07;1.50;;;;;;;7.91;98.51;99965.00;4977687;28;20039;-85
2023/12/31 03:21:39;;;;;;;3.50;1.90;;;;;;;7.99;98.11;99953.66;4977579;28;20018;-86
2023/12/31 03:24:04;;;;;;;2.08;1.75;;;;;;;7.90;98.89;99946.09;4978262;28;20035;-86
2023/12/31 03:26:30;;;;;;;3.47;1.70;;;;;;;7.93;98.60;99924.50;4978003;28;20034;-85
2023/12/31 03:28:55;;;;;;;1.73;1.63;;;;;;;7.90;98.87;99925.41;4976922;28;20041;-85
2023/12/31 03:31:20;;;;;;;2.60;1.77;;;;;;;7.87;98.62;99910.84;4977574;28;20076;-85
2023/12/31 03:33:46;;;;;;;5.30;1.90;;;;;;;7.88;98.45;99919.44;4977012;28;20475;-85
2023/12/31 03:36:11;;;;;;;2.10;1.90;;;;;;;7.87;98.49;99915.13;4976914;28;20037;-86
2023/12/31 03:38:37;;;;;;;2.60;1.97;;;;;;;7.94;98.45;99897.78;4977119;28;20428;-85
2023/12/31 03:41:02;;;;;;;4.27;2.20;;;;;;;8.04;97.66;99883.81;4977498;28;20030;-85
2023/12/31 03:43:34;;;;;;;2.30;1.83;;;;;;;7.91;98.48;99888.38;4976360;28;20479;-85
2023/12/31 03:45:59;;;;;;;2.78;2.10;;;;;;;7.91;97.74;99874.59;4977201;28;20090;-85
2023/12/31 03:48:25;;;;;;;4.53;2.03;;;;;;;7.89;97.96;99862.53;4976742;28;20031;-84
2023/12/31 03:50:50;;;;;;;1.97;1.87;;;;;;;7.85;98.62;99866.09;4976701;28;20439;-85
2023/12/31 03:53:15;;;;;;;2.30;1.90;;;;;;;7.87;98.60;99854.00;4977184;28;20030;-86
2023/12/31 03:55:41;;;;;;;3.90;1.90;;;;;;;7.86;98.57;99848.84;4976203;28;20031;-86
2023/12/31 03:58:06;;;;;;;3.30;2.10;;;;;;;7.84;98.34;99846.31;4977255;28;20023;-84
2023/12/31 04:00:38;;;;;;;1.80;1.70;;;;;;;7.82;99.14;99839.47;4976373;28;20022;-85
2023/12/31 04:03:03;;;;;;;3.85;2.10;;;;;;;7.92;98.47;99835.81;4976093;28;20118;-85
2023/12/31 04:05:29;;;;;;;2.13;1.90;;;;;;;7.98;98.10;99821.94;4977076;28;20105;-85
2023/12/31 04:07:55;;;;;;;2.40;1.90;;;;;;;7.83;98.72;99816.19;4977059;28;20424;-85
2023/12/31 04:10:20;;;;;;;2.77;2.03;;;;;;;7.97;97.88;99818.47;4976554;28;20081;-85
2023/12/31 04:12:45;;;;;;;4.30;2.10;;;;;;;7.86;98.17;99812.69;4976276;28;20031;-85
2023/12/31 04:15:11;;;;;;;3.20;2.10;;;;;;;7.92;98.10;99803.94;4976745;28;20029;-85
2023/12/31 04:17:39;;;;;;;2.20;2.00;;;;;;;7.88;98.64;99800.59;4975466;28;20027;-85
2023/12/31 04:20:05;;;;;;;2.35;1.90;;;;;;;7.90;98.40;99798.81;4976489;28;20038;-86
2023/12/31 04:22:31;;;;;;;2.20;1.95;;;;;;;7.83;98.39;99795.53;4976017;28;20411;-86
2023/12/31 04:24:56;;;;;;;2.50;1.80;;;;;;;7.83;97.83;99784.31;4975734;28;20022;-85
2023/12/31 04:27:22;;;;;;;1.97;1.80;;;;;;;7.89;98.60;99779.88;4976231;28;20023;-86
2023/12/31 04:29:47;;;;;;;3.73;2.00;;;;;;;7.80;98.12;99759.41;4976065;28;20034;-87
2023/12/31 04:32:12;;;;;;;3.13;2.00;;;;;;;7.82;98.32;99757.66;4975960;28;20101;-84
2023/12/31 04:34:37;;;;;;;2.47;2.00;;;;;;;7.84;98.38;99776.56;4976800;28;20039;-85
2023/12/31 04:37:03;;;;;;;3.27;2.20;;;;;;;7.86;97.67;99761.00;4976690;28;20150;-85
2023/12/31 04:39:28;;;;;;;2.20;2.00;;;;;;;7.86;97.86;99758.44;4975710;28;20027;-85
2023/12/31 04:41:54;;;;;;;2.77;1.97;;;;;;;7.85;98.36;99759.31;4976148;28;20030;-85
2023/12/31 04:44:19;;;;;;;3.17;2.07;;;;;;;7.81;98.43;99752.53;4976724;28;20034;-85
2023/12/31 04:46:45;;;;;;;3.23;2.00;;;;;;;7.81;98.43;99758.53;4975587;28;20042;-85
2023/12/31 04:49:13;;;;;;;2.73;2.13;;;;;;;7.82;98.56;99749.06;4976809;28;20106;-85
2023/12/31 04:51:39;;;;;;;2.58;2.10;;;;;;;7.76;98.70;99736.25;4975784;28;20030;-85
2023/12/31 04:54:04;;;;;;;3.77;2.20;;;;;;;7.77;99.03;99733.63;4974957;28;20043;-86
2023/12/31 04:56:29;;;;;;;3.90;2.10;;;;;;;7.85;98.21;99736.94;4975876;28;20037;-86
2023/12/31 04:58:56;;;;;;;3.20;2.33;;;;;;;7.76;98.81;99726.81;4974818;28;20022;-85
2023/12/31 05:01:22;;;;;;;4.47;2.20;;;;;;;7.77;99.10;99717.31;4975947;28;20019;-85
2023/12/31 05:03:49;;;;;;;3.20;2.33;;;;;;;7.77;99.24;99712.13;4974945;28;20053;-85
2023/12/31 05:06:15;;;;;;;3.15;2.33;;;;;;;7.80;98.82;99710.34;4975141;28;20023;-85
2023/12/31 05:08:44;;;;;;;2.83;2.10;;;;;;;7.78;99.26;99711.25;4975631;28;20093;-85
2023/12/31 05:11:11;;;;;;;3.17;2.40;;;;;;;7.86;99.00;99705.06;4976196;28;20114;-85
2023/12/31 05:13:37;;;;;;;5.47;2.40;;;;;;;7.88;98.60;99699.84;4975326;28;20038;-85
2023/12/31 05:16:03;;;;;;;4.13;2.33;;;;;;;7.85;99.21;99694.72;4976040;28;20027;-86
2023/12/31 05:18:28;;;;;;;2.90;2.30;;;;;;;7.94;98.53;99691.94;4975706;28;20027;-85
2023/12/31 05:20:54;;;;;;;3.73;2.50;;;;;;;7.94;98.62;99683.34;4974874;28;20031;-85
2023/12/31 05:23:19;;;;;;;2.60;2.20;;;;;;;7.95;98.72;99683.31;4975092;28;20490;-85
2023/12/31 05:25:45;;;;;;;4.87;2.50;;;;;;;7.92;98.75;99674.78;4975389;28;20116;-85
2023/12/31 05:28:10;;;;;;;3.20;2.40;;;;;;;7.93;99.13;99663.56;4975023;28;20034;-86
2023/12/31 05:30:35;;;;;;;3.80;2.50;;;;;;;7.91;99.45;99653.28;4974919;28;20023;-84
2023/12/31 05:33:01;;;;;;;4.33;2.30;;;;;;;8.00;99.44;99660.81;4975171;28;20098;-85
2023/12/31 05:35:26;;;;;;;3.73;2.30;;;;;;;7.89;99.31;99668.78;4974427;28;20031;-85
2023/12/31 05:37:51;;;;;;;5.10;2.53;;;;;;;7.95;99.27;99651.47;4974987;28;20029;-85
2023/12/31 05:40:18;;;;;;;3.03;2.27;;;;;;;7.92;99.60;99641.19;4975500;28;20058;-86
2023/12/31 05:42:43;;;;;;;4.60;2.70;;;;;;;7.98;99.07;99635.91;4974363;28;20081;-85
2023/12/31 05:45:08;;;;;;;3.20;2.30;;;;;;;8.06;98.91;99641.72;4975139;28;20031;-85
2023/12/31 05:47:34;;;;;;;4.43;2.33;;;;;;;8.04;98.96;99640.91;4974625;28;20479;-85
2023/12/31 05:49:59;;;;;;;3.47;2.55;;;;;;;7.93;99.53;99630.84;4974104;28;20039;-85
2023/12/31 05:52:24;;;;;;;3.50;2.40;;;;;;;7.98;99.26;99628.16;4975252;28;20468;-86
2023/12/31 05:54:49;;;;;;;2.73;2.10;;;;;;;7.88;99.90;99615.44;4974237;28;20045;-85
2023/12/31 05:57:15;;;;;;;3.88;2.80;;;;;;;8.01;98.75;99618.59;4974640;28;20531;-85
2023/12/31 05:59:40;;;;;;;4.17;2.50;;;;;;;7.98;99.55;99610.91;4974932;28;20031;-85
2023/12/31 06:02:07;;;;;;;3.47;2.50;;;;;;;7.90;99.92;99612.81;4974982;28;20023;-84
2023/12/31 06:04:32;;;;;;;3.65;2.40;;;;;;;7.93;99.82;99624.81;4975019;28;20053;-85
2023/12/31 06:06:58;;;;;;;3.87;2.50;;;;;;;7.91;100.00;99609.34;4975351;28;20019;-85
2023/12/31 06:09:23;;;;;;;3.90;2.60;;;;;;;7.94;99.90;99608.44;4974593;28;20029;-85
2023/12/31 06:11:48;;;;;;;3.23;2.40;;;;;;;7.96;99.96;99609.25;4975174;28;20026;-85
2023/12/31 06:14:14;;;;;;;3.93;2.30;;;;;;;7.91;99.95;99606.78;4974713;28;20064;-85
2023/12/31 06:16:39;;;;;;;3.03;2.30;;;;;;;7.89;100.00;99596.47;4974437;28;20031;-85
2023/12/31 06:19:04;;;;;;;2.20;2.00;;;;;;;7.88;100.00;99599.09;4974998;28;20398;-85
2023/12/31 06:21:32;;;;;;;3.42;2.50;;;;;;;7.89;100.00;99595.63;4975464;28;20031;-85
2023/12/31 06:23:57;;;;;;;4.13;2.50;;;;;;;7.92;100.00;99592.09;4974286;28;20051;-85
2023/12/31 06:26:29;;;;;;;3.47;2.30;;;;;;;7.84;100.00;99571.63;4974697;28;20065;-85
2023/12/31 06:28:54;;;;;;;4.35;2.70;;;;;;;7.92;99.73;99580.06;4974582;28;20027;-86
2023/12/31 06:31:20;;;;;;;3.13;2.50;;;;;;;7.79;100.00;99569.16;4973919;28;20144;-85
2023/12/31 06:33:45;;;;;;;3.60;2.33;;;;;;;7.89;100.00;99574.97;4974009;28;20029;-86
2023/12/31 06:36:11;;;;;;;4.38;2.40;;;;;;;7.81;100.00;99569.13;4977908;28;20043;-85
2023/12/31 06:38:36;;;;;;;4.20;2.60;;;;;;;7.80;100.00;99565.69;4977287;28;20022;-85
2023/12/31 06:41:16;;;;;;;6.03;2.83;;;;;;;7.80;100.00;99554.53;4978340;28;20038;-85
2023/12/31 06:43:41;;;;;;;4.35;2.70;;;;;;;7.82;100.00;99548.44;4978125;28;20030;-85
2023/12/31 06:46:07;;;;;;;3.93;2.70;;;;;;;7.88;99.93;99539.69;4977824;28;20030;-85
2023/12/31 06:48:32;;;;;;;5.15;2.70;;;;;;;7.84;100.00;99535.47;4978104;28;20019;-84
2023/12/31 06:50:57;;;;;;;3.13;2.50;;;;;;;7.83;100.00;99531.19;4978038;28;20093;-86
2023/12/31 06:53:23;;;;;;;3.83;2.73;;;;;;;7.89;99.87;99521.53;4977531;28;20479;-85
2023/12/31 06:55:48;;;;;;;2.73;2.43;;;;;;;8.09;99.31;99515.03;4978013;28;20035;-85
2023/12/31 06:58:14;;;;;;;3.03;2.50;;;;;;;7.97;99.68;99523.94;4978417;28;20380;-85
2023/12/31 07:00:40;;;;;;;3.80;2.47;;;;;;;7.96;100.00;99519.66;4977379;28;20395;-85
2023/12/31 07:03:05;;;;;;;3.13;2.57;;;;;;;8.05;99.53;99516.00;4977747;28;20034;-84
2023/12/31 07:05:31;;;;;;;3.17;2.50;;;;;;;7.96;100.00;99504.16;4977417;28;20033;-85
2023/12/31 07:07:56;;;;;;;2.67;2.40;;;;;;;7.99;99.78;99504.09;4977779;28;20031;-83
2023/12/31 07:10:22;;;;;;;3.27;2.40;;;;;;;8.02;100.00;99504.00;4977857;28;20109;-84
2023/12/31 07:12:47;;;;;;;3.00;2.40;;;;;;;7.99;100.00;99496.31;4976821;28;20098;-87
2023/12/31 07:15:13;;;;;;;3.00;2.33;;;;;;;8.06;100.00;99502.19;4977441;28;20038;-84
2023/12/31 07:17:41;;;;;;;2.97;2.20;;;;;;;8.06;100.00;99491.00;4977567;28;20022;-84
2023/12/31 07:20:06;;;;;;;3.17;2.30;;;;;;;8.19;99.66;99488.06;4976968;28;20085;-84
2023/12/31 07:22:32;;;;;;;4.27;2.50;;;;;;;8.16;100.00;99477.78;4976619;28;20030;-84
2023/12/31 07:24:58;;;;;;;4.27;2.57;;;;;;;8.25;99.36;99471.53;4977603;28;20491;-85
2023/12/31 07:27:24;;;;;;;3.65;2.70;;;;;;;8.27;99.40;99468.88;4976784;28;20066;-85
2023/12/31 07:29:49;;;;;;;5.00;2.90;;;;;;;8.40;98.68;99487.47;4977313;28;20050;-85
2023/12/31 07:32:14;;;;;;;4.13;2.80;;;;;;;8.47;98.22;99471.78;4977370;28;20486;-83
2023/12/31 07:34:39;;;;;;;5.60;2.83;;;;;;;8.43;98.84;99459.81;4976338;28;20027;-84
2023/12/31 07:37:05;;;;;;;4.47;2.70;;;;;;;8.44;99.18;99456.34;4977116;28;20114;-85
2023/12/31 07:39:32;;;;;;;6.00;2.90;;;;;;;8.62;97.40;99449.81;4978157;28;20019;-85
2023/12/31 07:41:57;;;;;;;;;;;;;;;8.61;97.21;99453.28;4977962;28;20031;-85
2023/12/31 07:44:22;;;;;;;4.93;2.90;;;;;;;8.61;97.65;99448.09;4977782;28;19914;-85
2023/12/31 07:46:47;;;;;;;4.43;2.90;;;;;;;8.70;96.72;99457.34;4973500;28;20034;-84
2023/12/31 07:49:13;;;;;;;3.80;2.63;;;;;;;8.67;97.37;99436.72;4976667;28;20403;-84
2023/12/31 07:51:38;;;;;;;4.63;2.70;;;;;;;8.73;97.31;99433.97;4977149;28;20026;-85
2023/12/31 07:54:03;;;;;;;3.33;2.40;;;;;;;8.69;97.05;99428.94;4977467;28;20023;-85
2023/12/31 07:56:28;;;;;;;3.37;2.50;;;;;;;8.76;97.17;99433.03;4976817;28;20122;-86
2023/12/31 07:58:55;;;;;;;4.33;2.77;;;;;;;8.91;96.16;99442.91;4977302;28;20035;-84
2023/12/31 08:01:20;;;;;;;3.30;2.50;;;;;;;8.85;96.68;99442.25;4977174;28;20023;-85
2023/12/31 08:03:45;;;;;;;4.10;2.60;;;;;;;9.09;96.71;99436.31;4975964;28;20447;-85
2023/12/31 08:06:11;;;;;;;5.30;3.00;;;;;;;9.00;96.32;99439.22;5132554;23;20054;-85
2023/12/31 08:08:36;;;;;;;3.40;2.40;;;;;;;8.98;96.82;99435.81;4976807;28;20044;-85
2023/12/31 08:11:01;;;;;;;5.40;2.80;;;;;;;9.11;95.90;99441.44;4975307;28;20058;-85
2023/12/31 08:13:27;;;;;;;5.23;2.67;;;;;;;9.05;96.39;99432.13;4977288;28;20102;-86
2023/12/31 08:15:57;;;;;;;3.20;2.50;;;;;;;9.01;96.44;99422.75;4976325;28;20026;-87
2023/12/31 08:18:23;;;;;;;4.50;2.70;;;;;;;9.20;95.99;99417.00;4976710;28;20085;-87
2023/12/31 08:20:48;;;;;;;3.80;2.50;;;;;;;9.06;96.15;99415.72;4977480;28;20028;-88
2023/12/31 08:23:16;;;;;;;3.30;2.53;;;;;;;9.06;96.48;99430.41;4977682;28;20030;-90
2023/12/31 08:25:41;;;;;;;4.88;2.60;;;;;;;9.25;95.58;99431.50;4977692;28;20031;-92
2023/12/31 08:28:07;;;;;;;3.30;2.67;;;;;;;9.15;96.35;99419.75;4978431;28;20097;-93
2023/12/31 08:30:43;;;;;;;3.73;2.57;;;;;;;9.23;96.47;99422.94;4964285;28;20034;-92
2023/12/31 08:33:08;;;;;;;3.15;2.40;;;;;;;9.24;95.27;99434.13;4960893;28;20383;-90
2023/12/31 08:38:02;;;;;;;3.05;2.38;;;;;;;9.25;96.11;99430.63;4995447;28;20042;-93
2023/12/31 08:40:28;;;;;;;2.80;2.30;;;;;;;9.21;97.38;99419.53;4997306;28;20084;-93
2023/12/31 08:42:53;;;;;;;3.30;2.60;;;;;;;9.16;97.37;99424.03;4996430;28;20026;-92
2023/12/31 08:45:18;;;;;;;4.33;2.50;;;;;;;9.20;97.58;99424.78;4996287;28;20463;-92
2023/12/31 08:47:44;;;;;;;5.10;2.60;;;;;;;9.18;97.76;99416.22;4996463;28;20053;-92
2023/12/31 08:50:13;;;;;;;4.30;2.87;;;;;;;9.08;99.67;99429.44;4996596;28;20015;-93
2023/12/31 08:52:45;;;;;;;3.65;2.60;;;;;;;9.06;99.63;99430.41;4996498;28;20033;-94
2023/12/31 08:55:12;;;;;;;4.78;2.70;;;;;;;9.05;99.79;99426.13;4995028;28;20538;-89
2023/12/31 08:57:44;;;;;;;3.75;2.70;;;;;;;8.95;100.00;99408.25;4976456;28;20077;-91
2023/12/31 09:00:09;;;;;;;3.90;2.50;;;;;;;8.94;100.00;99413.50;4977023;28;20038;-89
2023/12/31 09:02:41;;;;;;;3.23;2.37;;;;;;;8.90;100.00;99417.94;4983228;28;20383;-93
2023/12/31 09:05:07;;;;;;;4.32;2.42;;;;;;;8.90;100.00;99415.34;4996301;28;20042;-91
2023/12/31 09:07:34;;;;;;;3.77;2.33;;;;;;;8.90;100.00;99425.69;4995198;28;20018;-89
2023/12/31 09:10:02;;;;;;;5.07;2.60;;;;;;;8.79;100.00;99420.00;4995154;28;20030;-92
2023/12/31 09:12:30;;;;;;;4.05;2.70;;;;;;;8.85;100.00;99421.56;4995354;28;20019;-93
2023/12/31 09:14:55;;;;;;;3.53;2.50;;;;;;;8.74;100.00;99440.84;4995206;28;20148;-92
2023/12/31 09:17:20;;;;;;;3.60;2.23;;;;;;;8.71;100.00;99438.34;4998782;28;20093;-90
2023/12/31 09:19:46;;;;;;;3.37;2.30;;;;;;;8.73;100.00;99440.88;4994756;28;20471;-90
2023/12/31 09:22:11;;;;;;;4.83;2.40;;;;;;;8.67;100.00;99454.00;4988676;28;20026;-89
2023/12/31 09:24:37;;;;;;;3.40;2.37;;;;;;;8.62;100.00;99446.38;4995709;28;20029;-89
2023/12/31 09:27:03;;;;;;;2.87;2.03;;;;;;;8.66;100.00;99458.34;4995735;28;20411;-93
2023/12/31 09:29:29;;;;;;;2.55;2.08;;;;;;;8.68;100.00;99455.69;4996224;28;20030;-89
2023/12/31 09:32:07;;;;;;;3.92;2.03;;;;;;;8.60;100.00;99448.16;5112453;27;20384;-88
2023/12/31 09:34:33;;;;;;;2.57;2.00;;;;;;;8.67;100.00;99449.66;5111590;28;20380;-93
2023/12/31 09:36:58;;;;;;;2.30;1.83;;;;;;;8.65;100.00;99449.72;5114440;28;20024;-91
2023/12/31 09:39:23;;;;;;;1.60;1.50;;;;;;;8.55;100.00;99466.41;5113157;28;20039;-91
2023/12/31 09:41:52;;;;;;;2.10;1.73;;;;;;;8.57;100.00;99466.34;5269637;22;20131;-86
2023/12/31 09:44:19;;;;;;;1.65;1.55;;;;;;;8.58;100.00;99466.31;5090180;28;20543;-87
2023/12/31 09:47:03;;;;;;;2.42;1.75;;;;;;;8.57;100.00;99468.94;5090127;28;20028;-88
2023/12/31 09:49:35;;;;;;;1.30;1.17;;;;;;;8.53;100.00;99477.69;5088953;28;20075;-88
2023/12/31 09:52:03;;;;;;;2.65;1.45;;;;;;;8.52;100.00;99473.41;5090655;28;20043;-88
2023/12/31 09:54:30;;;;;;;1.50;1.40;;;;;;;8.57;100.00;99467.22;5090122;28;20506;-87
2023/12/31 09:56:57;;;;;;;1.50;1.40;;;;;;;8.78;100.00;99478.63;5090772;28;20021;-87
2023/12/31 09:59:24;;;;;;;1.65;1.55;;;;;;;8.60;100.00;99484.38;5091065;28;20380;-86
2023/12/31 10:01:52;;;;;;;2.38;1.20;;;;;;;8.57;100.00;99489.63;5089736;28;20024;-87
2023/12/31 10:04:18;;;;;;;1.67;1.30;;;;;;;8.57;99.92;99484.44;5090089;28;20043;-86
2023/12/31 10:06:43;;;;;;;1.43;1.23;;;;;;;8.52;100.00;99476.81;5090233;28;20025;-88
2023/12/31 10:09:11;;;;;;;2.00;1.40;;;;;;;8.58;99.98;99475.81;5088885;28;20040;-87
2023/12/31 10:11:38;;;;;;;2.35;1.10;;;;;;;8.59;99.79;99477.50;5090338;28;20108;-87
2023/12/31 10:14:03;;;;;;;1.63;1.20;;;;;;;8.64;99.49;99470.47;5089817;28;20024;-86
2023/12/31 10:16:36;;;;;;;2.10;1.20;;;;;;;8.65;99.65;99474.75;5089423;28;20090;-86
2023/12/31 10:19:02;;;;;;;1.67;1.20;;;;;;;8.69;99.14;99475.50;5090808;28;20099;-87
2023/12/31 10:21:27;;;;;;;2.33;1.20;;;;;;;8.67;99.10;99474.69;5090665;28;20098;-86
2023/12/31 10:23:55;;;;;;;1.03;0.93;;;;;;;8.70;98.16;99484.97;5089367;28;20097;-86
2023/12/31 10:26:21;;;;;;;3.03;1.40;;;;;;;8.74;97.47;99477.06;5090800;28;20377;-89
2023/12/31 10:28:46;;;;;;;1.87;1.37;;;;;;;8.70;98.00;99478.03;5072182;28;20029;-86
2023/12/31 10:31:11;;;;;;;3.60;1.60;;;;;;;8.79;97.83;99476.91;5069314;28;20075;-87
2023/12/31 10:33:38;;;;;;;2.00;1.27;;;;;;;8.64;99.29;99476.47;5070402;28;20477;-86
2023/12/31 10:38:28;;;;;;;2.60;1.13;;;;;;;8.59;99.80;99474.91;5075941;22;19931;-87
2023/12/31 10:41:08;;;;;;;3.50;1.40;;;;;;;8.42;100.00;99483.97;5070028;28;20029;-87
2023/12/31 10:43:37;;;;;;;1.33;1.23;;;;;;;8.44;100.00;99489.09;5055406;28;20430;-86
2023/12/31 10:46:03;;;;;;;1.30;1.20;;;;;;;8.35;100.00;99490.19;5056061;28;20477;-86
2023/12/31 10:48:31;;;;;;;1.33;1.00;;;;;;;8.24;100.00;99498.25;5052295;28;20025;-88
2023/12/31 10:50:57;;;;;;;1.83;1.10;;;;;;;8.18;100.00;99491.53;5041021;28;20045;-90
2023/12/31 10:53:24;;;;;;;2.65;1.08;;;;;;;8.10;100.00;99510.69;5051542;28;20037;-90
2023/12/31 10:55:50;;;;;;;1.67;1.20;;;;;;;8.05;100.00;99497.91;5056851;28;20052;-87
2023/12/31 10:58:16;;;;;;;2.15;1.55;;;;;;;8.07;100.00;99479.75;5056247;28;20036;-87
2023/12/31 11:00:43;;;;;;;1.30;1.00;;;;;;;7.99;100.00;99474.81;5056521;28;20033;-88
2023/12/31 11:03:13;;;;;;;3.05;1.20;;;;;;;8.02;100.00;99475.59;5056268;28;20033;-88
2023/12/31 11:05:40;;;;;;;3.47;1.15;;;;;;;8.02;100.00;99477.31;5055805;28;20024;-87
2023/12/31 11:08:08;;;;;;;1.30;0.88;;;;;;;8.05;100.00;99474.66;5056641;28;20029;-88
2023/12/31 11:10:37;;;;;;;2.20;1.00;;;;;;;8.07;100.00;99485.78;5056454;28;20025;-86
2023/12/31 11:13:03;;;;;;;2.95;1.33;;;;;;;8.12;100.00;99483.09;5055911;28;20033;-86
2023/12/31 11:15:30;;;;;;;1.60;0.97;;;;;;;8.11;100.00;99478.81;5055882;28;20040;-87
2023/12/31 11:18:16;;;;;;;2.35;1.00;;;;;;;8.10;100.00;99484.84;5056306;28;20075;-87
2023/12/31 11:21:00;;;;;;;1.92;1.00;;;;;;;8.14;100.00;99489.06;5055777;28;20039;-88
2023/12/31 11:23:40;;;;;;;3.08;1.20;;;;;;;8.18;100.00;99482.91;5056772;28;20421;-87
2023/12/31 11:26:06;;;;;;;1.40;1.10;;;;;;;8.28;100.00;99483.50;5055505;28;20060;-87
2023/12/31 11:28:33;;;;;;;1.80;1.02;;;;;;;8.29;100.00;99488.63;5055369;28;20083;-86
2023/12/31 11:31:02;;;;;;;;;;;;;;;8.37;100.00;99485.00;5056036;28;20029;-87
2023/12/31 11:33:32;;;;;;;1.52;1.08;;;;;;;8.42;100.00;99496.03;5054681;28;19966;-87
2023/12/31 11:36:05;;;;;;;3.13;1.33;;;;;;;8.50;100.00;99497.56;5055906;28;20040;-90
2023/12/31 11:38:58;;;;;;;2.03;1.25;;;;;;;8.50;100.00;99507.91;5088832;22;20056;-88